sensor_id;sensor_type;location;lat;lon;timestamp;temperature;humidity
6740;DHT22;3407;49.882;10.920;2023-01-25T00:01:17;2.10;1.00
6740;DHT22;3407;49.882;10.920;2023-01-25T00:06:13;2.10;1.00
6740;DHT22;3407;49.882;10.920;2023-01-25T00:11:08;2.20;1.00
6740;DHT22;3407;49.882;10.920;2023-01-25T00:16:04;2.20;1.00
6740;DHT22;3407;49.882;10.920;2023-01-25T00:21:14;2.20;1.00
6740;DHT22;3407;49.882;10.920;2023-01-25T00:26:10;2.30;1.00
6740;DHT22;3407;49.882;10.920;2023-01-25T00:31:07;2.30;1.00
6740;DHT22;3407;49.882;10.920;2023-01-25T00:36:28;2.30;1.00
6740;DHT22;3407;49.882;10.920;2023-01-25T00:41:27;2.30;1.00
6740;DHT22;3407;49.882;10.920;2023-01-25T00:46:23;2.30;1.00
6740;DHT22;3407;49.882;10.920;2023-01-25T00:51:19;2.30;1.00
6740;DHT22;3407;49.882;10.920;2023-01-25T00:56:15;2.30;1.00
6740;DHT22;3407;49.882;10.920;2023-01-25T01:01:10;2.20;1.00
6740;DHT22;3407;49.882;10.920;2023-01-25T01:06:08;2.20;1.00
6740;DHT22;3407;49.882;10.920;2023-01-25T01:11:07;2.20;1.00
6740;DHT22;3407;49.882;10.920;2023-01-25T01:16:04;2.30;1.00
6740;DHT22;3407;49.882;10.920;2023-01-25T01:21:00;2.30;1.00
6740;DHT22;3407;49.882;10.920;2023-01-25T01:25:59;2.30;1.00
6740;DHT22;3407;49.882;10.920;2023-01-25T01:31:02;2.30;1.00
6740;DHT22;3407;49.882;10.920;2023-01-25T01:35:57;2.40;1.00
6740;DHT22;3407;49.882;10.920;2023-01-25T01:40:53;2.30;1.00
6740;DHT22;3407;49.882;10.920;2023-01-25T01:50:51;2.30;1.00
6740;DHT22;3407;49.882;10.920;2023-01-25T01:55:47;2.30;1.00
6740;DHT22;3407;49.882;10.920;2023-01-25T02:00:42;2.20;1.00
6740;DHT22;3407;49.882;10.920;2023-01-25T02:06:00;2.20;1.00
6740;DHT22;3407;49.882;10.920;2023-01-25T02:10:58;2.20;1.00
6740;DHT22;3407;49.882;10.920;2023-01-25T02:15:54;2.20;1.00
6740;DHT22;3407;49.882;10.920;2023-01-25T02:20:55;2.20;1.00
6740;DHT22;3407;49.882;10.920;2023-01-25T02:25:52;2.20;1.00
6740;DHT22;3407;49.882;10.920;2023-01-25T02:30:48;2.20;1.00
6740;DHT22;3407;49.882;10.920;2023-01-25T02:35:46;2.20;1.00
6740;DHT22;3407;49.882;10.920;2023-01-25T02:40:49;2.10;1.00
6740;DHT22;3407;49.882;10.920;2023-01-25T02:45:49;2.10;1.00
6740;DHT22;3407;49.882;10.920;2023-01-25T02:50:46;2.10;1.00
6740;DHT22;3407;49.882;10.920;2023-01-25T02:55:42;2.10;1.00
6740;DHT22;3407;49.882;10.920;2023-01-25T03:00:37;2.00;1.00
6740;DHT22;3407;49.882;10.920;2023-01-25T03:05:33;2.00;1.00
6740;DHT22;3407;49.882;10.920;2023-01-25T03:10:28;1.90;1.00
6740;DHT22;3407;49.882;10.920;2023-01-25T03:15:24;1.90;1.00
6740;DHT22;3407;49.882;10.920;2023-01-25T03:20:19;1.90;1.00
6740;DHT22;3407;49.882;10.920;2023-01-25T03:25:15;1.90;1.00
6740;DHT22;3407;49.882;10.920;2023-01-25T03:30:11;1.90;1.00
6740;DHT22;3407;49.882;10.920;2023-01-25T03:35:07;1.90;1.00
6740;DHT22;3407;49.882;10.920;2023-01-25T03:40:03;1.80;1.00
6740;DHT22;3407;49.882;10.920;2023-01-25T03:44:58;1.80;1.00
6740;DHT22;3407;49.882;10.920;2023-01-25T03:49:54;1.70;1.00
6740;DHT22;3407;49.882;10.920;2023-01-25T03:54:49;1.80;1.00
6740;DHT22;3407;49.882;10.920;2023-01-25T03:59:45;1.80;1.00
6740;DHT22;3407;49.882;10.920;2023-01-25T04:04:40;1.80;1.00
6740;DHT22;3407;49.882;10.920;2023-01-25T04:09:36;1.80;1.00
6740;DHT22;3407;49.882;10.920;2023-01-25T04:14:31;1.80;1.00
6740;DHT22;3407;49.882;10.920;2023-01-25T04:19:27;1.90;1.00
6740;DHT22;3407;49.882;10.920;2023-01-25T04:24:22;2.00;1.00
6740;DHT22;3407;49.882;10.920;2023-01-25T04:29:18;2.00;1.00
6740;DHT22;3407;49.882;10.920;2023-01-25T04:34:13;1.90;1.00
6740;DHT22;3407;49.882;10.920;2023-01-25T04:39:09;1.80;1.00
6740;DHT22;3407;49.882;10.920;2023-01-25T04:44:04;1.70;1.00
6740;DHT22;3407;49.882;10.920;2023-01-25T04:49:00;1.70;1.00
6740;DHT22;3407;49.882;10.920;2023-01-25T04:53:55;1.80;1.00
6740;DHT22;3407;49.882;10.920;2023-01-25T04:58:51;1.80;1.00
6740;DHT22;3407;49.882;10.920;2023-01-25T05:03:46;1.70;1.00
6740;DHT22;3407;49.882;10.920;2023-01-25T05:08:42;1.80;1.00
6740;DHT22;3407;49.882;10.920;2023-01-25T05:13:37;1.80;1.00
6740;DHT22;3407;49.882;10.920;2023-01-25T05:18:33;1.80;1.00
6740;DHT22;3407;49.882;10.920;2023-01-25T05:23:28;1.90;1.00
6740;DHT22;3407;49.882;10.920;2023-01-25T05:28:24;1.90;1.00
6740;DHT22;3407;49.882;10.920;2023-01-25T05:33:19;1.80;1.00
6740;DHT22;3407;49.882;10.920;2023-01-25T05:38:15;1.90;1.00
6740;DHT22;3407;49.882;10.920;2023-01-25T05:43:11;1.80;1.00
6740;DHT22;3407;49.882;10.920;2023-01-25T05:48:06;1.80;1.00
6740;DHT22;3407;49.882;10.920;2023-01-25T05:53:02;1.80;1.00
6740;DHT22;3407;49.882;10.920;2023-01-25T05:57:57;1.80;1.00
6740;DHT22;3407;49.882;10.920;2023-01-25T06:02:53;1.70;1.00
6740;DHT22;3407;49.882;10.920;2023-01-25T06:07:51;1.70;1.00
6740;DHT22;3407;49.882;10.920;2023-01-25T06:12:46;1.70;1.00
6740;DHT22;3407;49.882;10.920;2023-01-25T06:17:42;1.70;1.00
6740;DHT22;3407;49.882;10.920;2023-01-25T06:22:37;1.70;1.00
6740;DHT22;3407;49.882;10.920;2023-01-25T06:27:33;1.80;1.00
6740;DHT22;3407;49.882;10.920;2023-01-25T06:32:31;1.80;1.00
6740;DHT22;3407;49.882;10.920;2023-01-25T06:37:27;1.80;1.00
6740;DHT22;3407;49.882;10.920;2023-01-25T06:42:23;1.90;1.00
6740;DHT22;3407;49.882;10.920;2023-01-25T06:47:19;1.90;1.00
6740;DHT22;3407;49.882;10.920;2023-01-25T06:52:14;1.90;1.00
6740;DHT22;3407;49.882;10.920;2023-01-25T06:57:10;1.90;1.00
6740;DHT22;3407;49.882;10.920;2023-01-25T07:02:06;1.90;1.00
6740;DHT22;3407;49.882;10.920;2023-01-25T07:07:02;1.90;1.00
6740;DHT22;3407;49.882;10.920;2023-01-25T07:11:57;1.80;1.00
6740;DHT22;3407;49.882;10.920;2023-01-25T07:16:53;1.70;1.00
6740;DHT22;3407;49.882;10.920;2023-01-25T07:21:48;1.80;1.00
6740;DHT22;3407;49.882;10.920;2023-01-25T07:26:44;1.80;1.00
6740;DHT22;3407;49.882;10.920;2023-01-25T07:31:40;1.80;1.00
6740;DHT22;3407;49.882;10.920;2023-01-25T07:36:36;1.80;1.00
6740;DHT22;3407;49.882;10.920;2023-01-25T07:41:31;1.80;1.00
6740;DHT22;3407;49.882;10.920;2023-01-25T07:46:27;1.80;1.00
6740;DHT22;3407;49.882;10.920;2023-01-25T07:51:23;1.90;1.00
6740;DHT22;3407;49.882;10.920;2023-01-25T07:56:26;1.90;1.00
6740;DHT22;3407;49.882;10.920;2023-01-25T08:01:24;1.90;1.00
6740;DHT22;3407;49.882;10.920;2023-01-25T08:06:31;1.90;1.00
6740;DHT22;3407;49.882;10.920;2023-01-25T08:11:30;1.90;1.00
6740;DHT22;3407;49.882;10.920;2023-01-25T08:16:26;1.90;1.00
6740;DHT22;3407;49.882;10.920;2023-01-25T08:21:23;1.90;1.00
6740;DHT22;3407;49.882;10.920;2023-01-25T08:26:19;1.90;1.00
6740;DHT22;3407;49.882;10.920;2023-01-25T08:31:18;1.80;1.00
6740;DHT22;3407;49.882;10.920;2023-01-25T08:36:15;1.80;1.00
6740;DHT22;3407;49.882;10.920;2023-01-25T08:41:13;1.80;1.00
6740;DHT22;3407;49.882;10.920;2023-01-25T08:46:10;1.80;1.00
6740;DHT22;3407;49.882;10.920;2023-01-25T08:51:14;1.80;1.00
6740;DHT22;3407;49.882;10.920;2023-01-25T08:56:11;2.00;1.00
6740;DHT22;3407;49.882;10.920;2023-01-25T09:01:09;2.00;1.00
6740;DHT22;3407;49.882;10.920;2023-01-25T09:06:07;2.00;1.00
6740;DHT22;3407;49.882;10.920;2023-01-25T09:11:04;2.00;1.00
6740;DHT22;3407;49.882;10.920;2023-01-25T09:16:07;2.00;1.00
6740;DHT22;3407;49.882;10.920;2023-01-25T09:21:08;2.00;99.90
6740;DHT22;3407;49.882;10.920;2023-01-25T09:26:04;2.00;1.00
6740;DHT22;3407;49.882;10.920;2023-01-25T09:31:02;2.10;99.90
6740;DHT22;3407;49.882;10.920;2023-01-25T09:35:59;2.10;99.90
6740;DHT22;3407;49.882;10.920;2023-01-25T09:46:00;2.10;1.00
6740;DHT22;3407;49.882;10.920;2023-01-25T09:56:29;2.20;1.00
6740;DHT22;3407;49.882;10.920;2023-01-25T10:06:52;2.40;1.00
6740;DHT22;3407;49.882;10.920;2023-01-25T10:11:47;2.50;1.00
6740;DHT22;3407;49.882;10.920;2023-01-25T10:16:54;2.60;99.90
6740;DHT22;3407;49.882;10.920;2023-01-25T10:22:22;2.60;99.90
6740;DHT22;3407;49.882;10.920;2023-01-25T10:27:43;2.70;99.90
6740;DHT22;3407;49.882;10.920;2023-01-25T10:32:39;2.70;99.90
6740;DHT22;3407;49.882;10.920;2023-01-25T10:37:35;2.70;99.90
6740;DHT22;3407;49.882;10.920;2023-01-25T10:42:36;2.80;99.90
6740;DHT22;3407;49.882;10.920;2023-01-25T10:47:36;2.80;99.90
6740;DHT22;3407;49.882;10.920;2023-01-25T10:52:34;2.80;99.90
6740;DHT22;3407;49.882;10.920;2023-01-25T10:57:34;2.70;99.90
6740;DHT22;3407;49.882;10.920;2023-01-25T11:02:46;2.60;99.90
6740;DHT22;3407;49.882;10.920;2023-01-25T11:07:42;2.70;99.90
6740;DHT22;3407;49.882;10.920;2023-01-25T11:12:37;2.80;1.00
6740;DHT22;3407;49.882;10.920;2023-01-25T11:17:33;2.80;1.00
6740;DHT22;3407;49.882;10.920;2023-01-25T11:22:28;2.80;75.20
6740;DHT22;3407;49.882;10.920;2023-01-25T11:27:25;2.70;1.00
6740;DHT22;3407;49.882;10.920;2023-01-25T11:32:22;2.70;1.00
6740;DHT22;3407;49.882;10.920;2023-01-25T12:09:08;2.20;99.90
6740;DHT22;3407;49.882;10.920;2023-01-25T12:14:28;2.20;99.90
6740;DHT22;3407;49.882;10.920;2023-01-25T12:24:36;2.40;99.90
6740;DHT22;3407;49.882;10.920;2023-01-25T12:29:45;2.50;99.90
6740;DHT22;3407;49.882;10.920;2023-01-25T12:34:47;2.60;1.00
6740;DHT22;3407;49.882;10.920;2023-01-25T12:39:47;2.50;1.00
6740;DHT22;3407;49.882;10.920;2023-01-25T12:44:46;2.40;99.90
6740;DHT22;3407;49.882;10.920;2023-01-25T12:54:46;2.60;99.90
6740;DHT22;3407;49.882;10.920;2023-01-25T12:59:52;2.60;99.90
6740;DHT22;3407;49.882;10.920;2023-01-25T13:09:57;2.70;99.90
6740;DHT22;3407;49.882;10.920;2023-01-25T13:14:54;2.70;99.90
6740;DHT22;3407;49.882;10.920;2023-01-25T13:19:50;2.80;99.90
6740;DHT22;3407;49.882;10.920;2023-01-25T13:35:43;2.70;99.90
6740;DHT22;3407;49.882;10.920;2023-01-25T13:40:39;2.70;1.00
6740;DHT22;3407;49.882;10.920;2023-01-25T13:45:38;2.60;99.90
6740;DHT22;3407;49.882;10.920;2023-01-25T13:50:37;2.30;1.00
6740;DHT22;3407;49.882;10.920;2023-01-25T13:56:20;2.40;99.90
6740;DHT22;3407;49.882;10.920;2023-01-25T14:01:27;2.40;1.00
6740;DHT22;3407;49.882;10.920;2023-01-25T14:06:38;2.40;99.90
6740;DHT22;3407;49.882;10.920;2023-01-25T14:11:36;2.30;1.00
6740;DHT22;3407;49.882;10.920;2023-01-25T14:16:38;2.30;99.90
6740;DHT22;3407;49.882;10.920;2023-01-25T14:21:34;2.30;99.90
6740;DHT22;3407;49.882;10.920;2023-01-25T14:26:31;2.10;99.90
6740;DHT22;3407;49.882;10.920;2023-01-25T14:31:32;2.20;99.90
6740;DHT22;3407;49.882;10.920;2023-01-25T14:36:31;2.20;99.90
6740;DHT22;3407;49.882;10.920;2023-01-25T14:41:33;2.20;99.90
6740;DHT22;3407;49.882;10.920;2023-01-25T14:46:35;2.30;99.90
6740;DHT22;3407;49.882;10.920;2023-01-25T14:51:31;2.30;99.90
6740;DHT22;3407;49.882;10.920;2023-01-25T14:56:44;2.30;99.90
6740;DHT22;3407;49.882;10.920;2023-01-25T15:01:40;2.30;99.90
6740;DHT22;3407;49.882;10.920;2023-01-25T15:07:02;2.30;99.90
6740;DHT22;3407;49.882;10.920;2023-01-25T15:17:44;2.20;99.90
6740;DHT22;3407;49.882;10.920;2023-01-25T15:22:40;2.20;99.90
6740;DHT22;3407;49.882;10.920;2023-01-25T15:27:36;2.00;99.90
6740;DHT22;3407;49.882;10.920;2023-01-25T15:32:33;2.00;1.00
6740;DHT22;3407;49.882;10.920;2023-01-25T15:37:29;2.10;1.00
6740;DHT22;3407;49.882;10.920;2023-01-25T15:42:24;2.10;1.00
6740;DHT22;3407;49.882;10.920;2023-01-25T15:47:20;2.00;1.00
6740;DHT22;3407;49.882;10.920;2023-01-25T15:52:15;2.00;1.00
6740;DHT22;3407;49.882;10.920;2023-01-25T15:57:25;2.00;1.00
6740;DHT22;3407;49.882;10.920;2023-01-25T16:02:22;2.00;1.00
6740;DHT22;3407;49.882;10.920;2023-01-25T16:07:22;2.00;1.00
6740;DHT22;3407;49.882;10.920;2023-01-25T16:12:19;1.80;1.00
6740;DHT22;3407;49.882;10.920;2023-01-25T16:17:18;1.80;1.00
6740;DHT22;3407;49.882;10.920;2023-01-25T16:22:16;1.80;1.00
6740;DHT22;3407;49.882;10.920;2023-01-25T16:27:16;1.70;99.90
6740;DHT22;3407;49.882;10.920;2023-01-25T16:32:14;1.70;1.00
6740;DHT22;3407;49.882;10.920;2023-01-25T16:37:16;1.60;1.00
6740;DHT22;3407;49.882;10.920;2023-01-25T16:42:12;1.70;1.00
6740;DHT22;3407;49.882;10.920;2023-01-25T16:47:13;1.60;99.90
6740;DHT22;3407;49.882;10.920;2023-01-25T16:52:10;1.50;1.00
6740;DHT22;3407;49.882;10.920;2023-01-25T16:57:08;1.60;1.00
6740;DHT22;3407;49.882;10.920;2023-01-25T17:02:04;1.50;1.00
6740;DHT22;3407;49.882;10.920;2023-01-25T17:07:00;1.60;1.00
6740;DHT22;3407;49.882;10.920;2023-01-25T17:11:55;1.60;1.00
6740;DHT22;3407;49.882;10.920;2023-01-25T17:16:51;1.60;1.00
6740;DHT22;3407;49.882;10.920;2023-01-25T17:21:47;1.60;1.00
6740;DHT22;3407;49.882;10.920;2023-01-25T17:26:43;1.70;1.00
6740;DHT22;3407;49.882;10.920;2023-01-25T17:31:39;1.70;1.00
6740;DHT22;3407;49.882;10.920;2023-01-25T17:36:36;1.70;1.00
6740;DHT22;3407;49.882;10.920;2023-01-25T17:41:31;1.70;1.00
6740;DHT22;3407;49.882;10.920;2023-01-25T17:46:30;1.70;1.00
6740;DHT22;3407;49.882;10.920;2023-01-25T17:51:27;1.70;1.00
6740;DHT22;3407;49.882;10.920;2023-01-25T17:56:23;1.70;1.00
6740;DHT22;3407;49.882;10.920;2023-01-25T18:01:23;1.70;1.00
6740;DHT22;3407;49.882;10.920;2023-01-25T18:06:23;1.70;1.00
6740;DHT22;3407;49.882;10.920;2023-01-25T18:11:22;1.60;1.00
6740;DHT22;3407;49.882;10.920;2023-01-25T18:16:20;1.60;1.00
6740;DHT22;3407;49.882;10.920;2023-01-25T18:21:19;1.60;1.00
6740;DHT22;3407;49.882;10.920;2023-01-25T18:26:23;1.60;1.00
6740;DHT22;3407;49.882;10.920;2023-01-25T18:31:19;1.50;1.00
6740;DHT22;3407;49.882;10.920;2023-01-25T18:36:16;1.50;1.00
6740;DHT22;3407;49.882;10.920;2023-01-25T18:41:12;1.60;1.00
6740;DHT22;3407;49.882;10.920;2023-01-25T18:46:08;1.60;1.00
6740;DHT22;3407;49.882;10.920;2023-01-25T18:51:10;1.60;1.00
6740;DHT22;3407;49.882;10.920;2023-01-25T18:56:11;1.60;1.00
6740;DHT22;3407;49.882;10.920;2023-01-25T19:01:15;1.60;1.00
6740;DHT22;3407;49.882;10.920;2023-01-25T19:06:11;1.50;1.00
6740;DHT22;3407;49.882;10.920;2023-01-25T19:11:12;1.50;1.00
6740;DHT22;3407;49.882;10.920;2023-01-25T19:16:12;1.50;1.00
6740;DHT22;3407;49.882;10.920;2023-01-25T19:21:08;1.50;1.00
6740;DHT22;3407;49.882;10.920;2023-01-25T19:26:06;1.50;1.00
6740;DHT22;3407;49.882;10.920;2023-01-25T19:31:22;1.60;1.00
6740;DHT22;3407;49.882;10.920;2023-01-25T19:36:17;1.50;1.00
6740;DHT22;3407;49.882;10.920;2023-01-25T19:41:21;1.50;1.00
6740;DHT22;3407;49.882;10.920;2023-01-25T19:46:19;1.50;1.00
6740;DHT22;3407;49.882;10.920;2023-01-25T19:56:17;1.40;1.00
6740;DHT22;3407;49.882;10.920;2023-01-25T20:01:15;1.40;1.00
6740;DHT22;3407;49.882;10.920;2023-01-25T20:06:12;1.40;1.00
6740;DHT22;3407;49.882;10.920;2023-01-25T20:16:06;1.50;1.00
6740;DHT22;3407;49.882;10.920;2023-01-25T20:21:07;1.50;1.00
6740;DHT22;3407;49.882;10.920;2023-01-25T20:31:21;1.50;1.00
6740;DHT22;3407;49.882;10.920;2023-01-25T20:36:17;1.50;1.00
6740;DHT22;3407;49.882;10.920;2023-01-25T20:41:15;1.50;1.00
6740;DHT22;3407;49.882;10.920;2023-01-25T20:46:11;1.40;1.00
6740;DHT22;3407;49.882;10.920;2023-01-25T20:51:08;1.50;1.00
6740;DHT22;3407;49.882;10.920;2023-01-25T20:56:05;1.40;1.00
6740;DHT22;3407;49.882;10.920;2023-01-25T21:01:00;1.40;1.00
6740;DHT22;3407;49.882;10.920;2023-01-25T21:05:58;1.40;1.00
6740;DHT22;3407;49.882;10.920;2023-01-25T21:10:56;1.40;1.00
6740;DHT22;3407;49.882;10.920;2023-01-25T21:16:10;1.40;1.00
6740;DHT22;3407;49.882;10.920;2023-01-25T21:26:07;1.40;1.00
6740;DHT22;3407;49.882;10.920;2023-01-25T21:31:08;1.40;1.00
6740;DHT22;3407;49.882;10.920;2023-01-25T21:36:05;1.40;1.00
6740;DHT22;3407;49.882;10.920;2023-01-25T21:41:07;1.40;1.00
6740;DHT22;3407;49.882;10.920;2023-01-25T21:46:04;1.30;1.00
6740;DHT22;3407;49.882;10.920;2023-01-25T21:51:11;1.40;1.00
6740;DHT22;3407;49.882;10.920;2023-01-25T21:56:26;1.30;1.00
6740;DHT22;3407;49.882;10.920;2023-01-25T22:01:22;1.30;1.00
6740;DHT22;3407;49.882;10.920;2023-01-25T22:06:18;1.30;1.00
6740;DHT22;3407;49.882;10.920;2023-01-25T22:11:13;1.30;1.00
6740;DHT22;3407;49.882;10.920;2023-01-25T22:16:10;1.30;1.00
6740;DHT22;3407;49.882;10.920;2023-01-25T22:21:20;1.30;1.00
6740;DHT22;3407;49.882;10.920;2023-01-25T22:26:19;1.30;1.00
6740;DHT22;3407;49.882;10.920;2023-01-25T22:31:22;1.30;1.00
6740;DHT22;3407;49.882;10.920;2023-01-25T22:36:19;1.30;1.00
6740;DHT22;3407;49.882;10.920;2023-01-25T22:41:17;1.30;1.00
6740;DHT22;3407;49.882;10.920;2023-01-25T22:46:15;1.30;1.00
6740;DHT22;3407;49.882;10.920;2023-01-25T22:51:19;1.30;1.00
6740;DHT22;3407;49.882;10.920;2023-01-25T22:56:17;1.30;1.00
6740;DHT22;3407;49.882;10.920;2023-01-25T23:01:14;1.20;1.00
6740;DHT22;3407;49.882;10.920;2023-01-25T23:06:12;1.20;1.00
6740;DHT22;3407;49.882;10.920;2023-01-25T23:11:11;1.20;1.00
6740;DHT22;3407;49.882;10.920;2023-01-25T23:16:08;1.20;1.00
6740;DHT22;3407;49.882;10.920;2023-01-25T23:21:04;1.20;1.00
6740;DHT22;3407;49.882;10.920;2023-01-25T23:26:00;1.10;1.00
6740;DHT22;3407;49.882;10.920;2023-01-25T23:31:06;1.20;1.00
6740;DHT22;3407;49.882;10.920;2023-01-25T23:36:21;1.10;1.00
6740;DHT22;3407;49.882;10.920;2023-01-25T23:41:19;1.10;1.00
6740;DHT22;3407;49.882;10.920;2023-01-25T23:46:16;1.10;1.00
6740;DHT22;3407;49.882;10.920;2023-01-25T23:51:12;1.10;1.00
6740;DHT22;3407;49.882;10.920;2023-01-25T23:56:17;1.00;1.00
